createdAt,value
2019-02-08T00:00:20.573Z,1010.06
2019-02-08T00:01:30.369Z,1009.99
2019-02-08T00:02:40.085Z,1010.04
2019-02-08T00:03:49.792Z,1010.05
2019-02-08T00:04:59.751Z,1010.09
2019-02-08T00:06:09.755Z,1009.96
2019-02-08T00:07:19.218Z,1009.98
2019-02-08T00:08:29.197Z,1010.07
2019-02-08T00:09:39.160Z,1010.03
2019-02-08T00:10:48.631Z,1010.04
2019-02-08T00:11:58.103Z,1010.1
2019-02-08T00:13:08.123Z,1010.12
2019-02-08T00:14:18.089Z,1010.09
2019-02-08T00:15:27.814Z,1010.08
2019-02-08T00:16:37.539Z,1010.16
2019-02-08T00:17:47.497Z,1010.1
2019-02-08T00:18:56.965Z,1010.16
2019-02-08T00:20:06.940Z,1010.15
2019-02-08T00:21:16.971Z,1010.11
2019-02-08T00:22:26.710Z,1010.09
2019-02-08T00:23:36.675Z,1010.18
2019-02-08T00:24:46.641Z,1010.12
2019-02-08T00:25:56.674Z,1010.18
2019-02-08T00:27:06.673Z,1010.12
2019-02-08T00:28:16.163Z,1010.19
2019-02-08T00:29:26.154Z,1010.15
2019-02-08T00:30:36.175Z,1010.25
2019-02-08T00:31:46.185Z,1010.18
2019-02-08T00:32:55.935Z,1010.2
2019-02-08T00:34:05.888Z,1010.17
2019-02-08T00:35:15.612Z,1010.26
2019-02-08T00:36:25.564Z,1010.26
2019-02-08T00:37:35.270Z,1010.21
2019-02-08T00:38:44.970Z,1010.21
2019-02-08T00:39:54.434Z,1010.23
2019-02-08T00:41:04.424Z,1010.22
2019-02-08T00:42:13.886Z,1010.18
2019-02-08T00:43:23.604Z,1010.17
2019-02-08T00:44:33.070Z,1010.22
2019-02-08T00:45:42.516Z,1010.25
2019-02-08T00:46:52.468Z,1010.18
2019-02-08T00:48:01.920Z,1010.36
2019-02-08T00:49:11.639Z,1010.23
2019-02-08T00:50:21.366Z,1010.2
2019-02-08T00:51:31.067Z,1010.3
2019-02-08T00:52:40.518Z,1010.26
2019-02-08T00:53:50.582Z,1010.25
2019-02-08T00:54:59.534Z,1010.22
2019-02-08T00:56:09.001Z,1010.27
2019-02-08T00:57:18.216Z,1010.31
2019-02-08T00:58:27.419Z,1010.29
2019-02-08T00:59:37.120Z,1010.32
2019-02-08T01:00:47.077Z,1010.28
2019-02-08T01:01:56.797Z,1010.28
2019-02-08T01:03:06.492Z,1010.22
2019-02-08T01:04:16.209Z,1010.28
2019-02-08T01:05:25.915Z,1010.23
2019-02-08T01:06:35.644Z,1010.31
2019-02-08T01:07:45.590Z,1010.33
2019-02-08T01:08:55.551Z,1010.34
2019-02-08T01:10:04.998Z,1010.32
2019-02-08T01:11:14.193Z,1010.43
2019-02-08T01:12:24.163Z,1010.36
2019-02-08T01:13:33.879Z,1010.35
2019-02-08T01:14:43.598Z,1010.36
2019-02-08T01:15:53.312Z,1010.33
2019-02-08T01:17:03.271Z,1010.34
2019-02-08T01:18:12.736Z,1010.4
2019-02-08T01:19:22.437Z,1010.44
2019-02-08T01:20:31.653Z,1010.42
2019-02-08T01:21:41.615Z,1010.35
2019-02-08T01:22:51.315Z,1010.38
2019-02-08T01:24:01.270Z,1010.33
2019-02-08T01:25:11.195Z,1010.35
2019-02-08T01:26:20.882Z,1010.29
2019-02-08T01:27:30.568Z,1010.37
2019-02-08T01:28:40.489Z,1010.29
2019-02-08T01:29:49.908Z,1010.36
2019-02-08T01:30:59.575Z,1010.36
2019-02-08T01:32:09.279Z,1010.39
2019-02-08T01:33:18.712Z,1010.48
2019-02-08T01:34:28.419Z,1010.47
2019-02-08T01:35:38.358Z,1010.41
2019-02-08T01:36:48.032Z,1010.44
2019-02-08T01:37:57.717Z,1010.45
2019-02-08T01:39:07.650Z,1010.4
2019-02-08T01:40:17.327Z,1010.34
2019-02-08T01:41:26.745Z,1010.34
2019-02-08T01:42:36.419Z,1010.32
2019-02-08T01:43:46.085Z,1010.35
2019-02-08T01:44:55.764Z,1010.34
2019-02-08T01:46:05.695Z,1010.37
2019-02-08T01:47:15.373Z,1010.33
2019-02-08T01:48:25.045Z,1010.38
2019-02-08T01:49:34.997Z,1010.34
2019-02-08T01:50:44.422Z,1010.32
2019-02-08T01:51:54.351Z,1010.4
2019-02-08T01:53:04.032Z,1010.4
2019-02-08T01:54:13.953Z,1010.39
2019-02-08T01:55:23.888Z,1010.34
2019-02-08T01:56:33.563Z,1010.44
2019-02-08T01:57:42.985Z,1010.35
2019-02-08T01:58:52.678Z,1010.3
2019-02-08T02:00:02.352Z,1010.32
2019-02-08T02:01:12.901Z,1010.43
2019-02-08T02:02:22.319Z,1010.38
2019-02-08T02:03:31.996Z,1010.34
2019-02-08T02:04:41.681Z,1010.52
2019-02-08T02:05:51.631Z,1010.43
2019-02-08T02:07:01.558Z,1010.42
2019-02-08T02:08:10.987Z,1010.44
2019-02-08T02:09:20.685Z,1010.42
2019-02-08T02:10:30.366Z,1010.4
2019-02-08T02:11:39.799Z,1010.44
2019-02-08T02:12:49.731Z,1010.41
2019-02-08T02:13:59.407Z,1010.47
2019-02-08T02:15:09.101Z,1010.46
2019-02-08T02:16:18.830Z,1010.45
2019-02-08T02:17:28.754Z,1010.53
2019-02-08T02:18:38.193Z,1010.48
2019-02-08T02:19:47.866Z,1010.5
2019-02-08T02:20:57.788Z,1010.58
2019-02-08T02:22:06.727Z,1010.57
2019-02-08T02:23:16.662Z,1010.54
2019-02-08T02:24:26.584Z,1010.59
2019-02-08T02:25:36.514Z,1010.61
2019-02-08T02:26:45.934Z,1010.54
2019-02-08T02:30:21.954Z,1010.61
2019-02-08T02:31:31.923Z,1010.59
2019-02-08T02:32:41.854Z,1010.67
2019-02-08T02:33:51.793Z,1010.66
2019-02-08T02:35:01.759Z,1010.7
2019-02-08T02:36:11.561Z,1010.69
2019-02-08T02:37:21.012Z,1010.71
2019-02-08T02:38:30.690Z,1010.7
2019-02-08T02:39:40.642Z,1010.69
2019-02-08T02:40:50.099Z,1010.73
2019-02-08T02:41:59.807Z,1010.76
2019-02-08T02:43:09.530Z,1010.77
2019-02-08T02:44:19.479Z,1010.78
2019-02-08T02:45:29.409Z,1010.75
2019-02-08T02:46:39.357Z,1010.76
2019-02-08T02:47:49.051Z,1010.78
2019-02-08T02:48:58.729Z,1010.79
2019-02-08T02:50:08.686Z,1010.79
2019-02-08T02:51:18.375Z,1010.77
2019-02-08T02:52:28.060Z,1010.78
2019-02-08T02:53:37.751Z,1010.79
2019-02-08T02:54:47.701Z,1010.77
2019-02-08T02:55:57.409Z,1010.74
2019-02-08T02:57:07.332Z,1010.7
2019-02-08T02:58:16.759Z,1010.77
2019-02-08T02:59:26.452Z,1010.73
2019-02-08T03:00:36.395Z,1010.76
2019-02-08T03:01:46.084Z,1010.76
2019-02-08T03:02:56.093Z,1010.78
2019-02-08T03:04:06.561Z,1010.75
2019-02-08T03:05:16.247Z,1010.72
2019-02-08T03:06:25.930Z,1010.67
2019-02-08T03:07:35.614Z,1010.74
2019-02-08T03:08:45.289Z,1010.71
2019-02-08T03:09:54.972Z,1010.75
2019-02-08T03:11:04.907Z,1010.76
2019-02-08T03:12:14.591Z,1010.87
2019-02-08T03:13:24.113Z,1010.79
2019-02-08T03:14:33.790Z,1010.86
2019-02-08T03:15:43.484Z,1010.84
2019-02-08T03:16:53.172Z,1010.81
2019-02-08T03:18:03.107Z,1010.78
2019-02-08T03:19:12.791Z,1010.81
2019-02-08T03:20:21.971Z,1010.82
2019-02-08T03:21:31.419Z,1010.8
2019-02-08T03:22:41.351Z,1010.8
2019-02-08T03:23:51.038Z,1010.82
2019-02-08T03:25:00.484Z,1010.85
2019-02-08T03:26:10.416Z,1010.87
2019-02-08T03:27:20.334Z,1010.82
2019-02-08T03:28:30.261Z,1010.82
2019-02-08T03:29:39.956Z,1010.81
2019-02-08T03:30:49.682Z,1010.78
2019-02-08T03:31:59.681Z,1010.78
2019-02-08T03:33:09.531Z,1010.84
2019-02-08T03:34:19.510Z,1010.83
2019-02-08T03:35:29.198Z,1010.89
2019-02-08T03:36:38.875Z,1010.85
2019-02-08T03:37:48.803Z,1010.85
2019-02-08T03:38:59.353Z,1010.88
2019-02-08T03:40:09.309Z,1010.87
2019-02-08T03:41:19.234Z,1010.83
2019-02-08T03:42:28.662Z,1010.9
2019-02-08T03:43:38.591Z,1010.84
2019-02-08T03:44:48.026Z,1010.87
2019-02-08T03:45:57.968Z,1010.87
2019-02-08T03:47:07.903Z,1010.86
2019-02-08T03:48:17.574Z,1011.05
2019-02-08T03:49:27.262Z,1010.86
2019-02-08T03:50:37.197Z,1010.87
2019-02-08T03:51:47.112Z,1010.88
2019-02-08T03:52:57.054Z,1010.83
2019-02-08T03:54:06.737Z,1010.78
2019-02-08T03:55:24.042Z,1010.77
2019-02-08T03:56:33.986Z,1010.84
2019-02-08T03:57:43.660Z,1010.81
2019-02-08T03:58:53.600Z,1010.87
2019-02-08T04:00:03.279Z,1010.87
2019-02-08T04:01:13.208Z,1010.83
2019-02-08T04:02:22.405Z,1010.8
2019-02-08T04:03:32.393Z,1010.88
2019-02-08T04:04:41.572Z,1010.83
2019-02-08T04:05:51.497Z,1010.77
2019-02-08T04:07:01.208Z,1010.86
2019-02-08T04:08:10.908Z,1010.86
2019-02-08T04:09:20.594Z,1010.86
2019-02-08T04:10:30.025Z,1010.81
2019-02-08T04:11:39.974Z,1010.8
2019-02-08T04:12:49.432Z,1010.78
2019-02-08T04:13:58.854Z,1010.84
2019-02-08T04:15:08.788Z,1010.85
2019-02-08T04:16:18.731Z,1010.82
2019-02-08T04:17:27.918Z,1010.87
2019-02-08T04:18:37.612Z,1010.86
2019-02-08T04:19:47.839Z,1010.86
2019-02-08T04:20:57.549Z,1010.89
2019-02-08T04:22:07.491Z,1011.04
2019-02-08T04:23:17.411Z,1010.9
2019-02-08T04:24:29.858Z,1010.96
2019-02-08T04:25:39.885Z,1010.95
2019-02-08T04:26:49.559Z,1010.95
2019-02-08T04:27:59.243Z,1011.02
2019-02-08T04:29:09.176Z,1010.93
2019-02-08T04:30:18.915Z,1011.04
2019-02-08T04:31:28.841Z,1011.06
2019-02-08T04:32:38.011Z,1010.95
2019-02-08T04:33:47.698Z,1010.97
2019-02-08T04:34:57.644Z,1010.95
2019-02-08T04:36:07.570Z,1010.91
2019-02-08T04:37:17.251Z,1010.95
2019-02-08T04:38:26.678Z,1010.94
2019-02-08T04:39:36.103Z,1010.85
2019-02-08T04:40:45.814Z,1010.82
2019-02-08T04:41:55.495Z,1010.83
2019-02-08T04:43:05.422Z,1010.81
2019-02-08T04:44:15.397Z,1010.79
2019-02-08T04:45:24.834Z,1010.81
2019-02-08T04:46:34.513Z,1010.81
2019-02-08T04:47:44.231Z,1010.84
2019-02-08T04:48:53.924Z,1010.83
2019-02-08T04:50:03.605Z,1010.79
2019-02-08T04:51:13.527Z,1010.81
2019-02-08T04:52:22.982Z,1010.87
2019-02-08T04:53:32.403Z,1010.83
2019-02-08T04:54:42.350Z,1010.77
2019-02-08T04:55:52.302Z,1010.88
2019-02-08T04:57:01.996Z,1010.86
2019-02-08T04:58:11.689Z,1010.82
2019-02-08T04:59:21.656Z,1010.89
2019-02-08T05:00:31.596Z,1010.83
2019-02-08T05:01:41.527Z,1010.8
2019-02-08T05:02:51.205Z,1010.82
2019-02-08T05:04:01.145Z,1010.78
2019-02-08T05:05:10.581Z,1010.73
2019-02-08T05:06:20.013Z,1010.82
2019-02-08T05:07:29.740Z,1010.85
2019-02-08T05:08:38.934Z,1010.77
2019-02-08T05:09:48.868Z,1010.78
2019-02-08T05:10:58.555Z,1010.78
2019-02-08T05:12:08.514Z,1010.79
2019-02-08T05:13:17.958Z,1010.78
2019-02-08T05:14:27.636Z,1010.83
2019-02-08T05:15:37.320Z,1010.86
2019-02-08T05:16:47.270Z,1010.79
2019-02-08T05:17:56.955Z,1010.8
2019-02-08T05:19:06.892Z,1010.78
2019-02-08T05:20:16.574Z,1010.79
2019-02-08T05:21:26.012Z,1010.77
2019-02-08T05:22:35.951Z,1010.76
2019-02-08T05:23:45.646Z,1010.76
2019-02-08T05:24:55.342Z,1010.74
2019-02-08T05:26:05.321Z,1010.73
2019-02-08T05:27:15.257Z,1010.77
2019-02-08T05:28:25.183Z,1010.8
2019-02-08T05:29:35.115Z,1010.86
2019-02-08T05:30:45.046Z,1010.8
2019-02-08T05:31:54.735Z,1010.78
2019-02-08T05:33:04.660Z,1010.74
2019-02-08T05:34:14.368Z,1010.82
2019-02-08T05:35:24.302Z,1010.7
2019-02-08T05:36:34.241Z,1010.72
2019-02-08T05:37:44.207Z,1010.79
2019-02-08T05:38:54.143Z,1010.82
2019-02-08T05:40:03.565Z,1010.76
2019-02-08T05:41:13.503Z,1010.79
2019-02-08T05:42:23.448Z,1010.72
2019-02-08T05:43:33.140Z,1010.71
2019-02-08T05:44:43.068Z,1010.8
2019-02-08T05:45:52.240Z,1010.7
2019-02-08T05:47:01.958Z,1010.68
2019-02-08T05:48:11.388Z,1010.73
2019-02-08T05:49:21.061Z,1010.7
2019-02-08T05:50:30.481Z,1010.68
2019-02-08T05:51:39.911Z,1010.61
2019-02-08T05:52:49.637Z,1010.56
2019-02-08T05:53:59.096Z,1010.6
2019-02-08T05:55:08.798Z,1010.54
2019-02-08T05:56:18.736Z,1010.57
2019-02-08T05:57:29.070Z,1010.51
2019-02-08T05:58:38.823Z,1010.53
2019-02-08T05:59:48.502Z,1010.47
2019-02-08T06:00:57.681Z,1010.53
2019-02-08T06:02:06.873Z,1010.54
2019-02-08T06:03:16.551Z,1010.48
2019-02-08T06:04:26.486Z,1010.53
2019-02-08T06:05:36.434Z,1010.45
2019-02-08T06:06:46.381Z,1010.47
2019-02-08T06:07:56.066Z,1010.48
2019-02-08T06:09:06.002Z,1010.5
2019-02-08T06:10:15.699Z,1010.52
2019-02-08T06:11:25.205Z,1010.54
2019-02-08T06:12:35.972Z,1010.48
2019-02-08T06:13:45.654Z,1010.44
2019-02-08T06:14:55.620Z,1010.5
2019-02-08T06:16:05.609Z,1010.46
2019-02-08T06:17:15.310Z,1010.45
2019-02-08T06:18:25.254Z,1010.35
2019-02-08T06:19:34.688Z,1010.41
2019-02-08T06:20:44.383Z,1010.45
2019-02-08T06:21:54.070Z,1010.41
2019-02-08T06:23:04.011Z,1010.44
2019-02-08T06:24:13.678Z,1010.46
2019-02-08T06:25:23.130Z,1010.47
2019-02-08T06:26:33.142Z,1010.43
2019-02-08T06:27:42.819Z,1010.47
2019-02-08T06:28:52.252Z,1010.46
2019-02-08T06:30:01.967Z,1010.46
2019-02-08T06:31:11.913Z,1010.49
2019-02-08T06:32:21.606Z,1010.46
2019-02-08T06:33:31.553Z,1010.51
2019-02-08T06:34:41.357Z,1010.48
2019-02-08T06:35:51.179Z,1010.53
2019-02-08T06:37:00.871Z,1010.48
2019-02-08T06:38:10.299Z,1010.43
2019-02-08T06:39:19.477Z,1010.47
2019-02-08T06:40:29.158Z,1010.45
2019-02-08T06:41:39.108Z,1010.5
2019-02-08T06:42:48.799Z,1010.47
2019-02-08T06:43:58.743Z,1010.48
2019-02-08T06:45:08.716Z,1010.47
2019-02-08T06:46:18.169Z,1010.43
2019-02-08T06:47:27.866Z,1010.46
2019-02-08T06:48:37.558Z,1010.5
2019-02-08T06:49:47.480Z,1010.48
2019-02-08T06:50:56.897Z,1010.53
2019-02-08T06:52:07.067Z,1010.53
2019-02-08T06:53:17.007Z,1010.51
2019-02-08T06:54:26.428Z,1010.49
2019-02-08T06:55:35.601Z,1010.52
2019-02-08T06:56:45.037Z,1010.56
2019-02-08T06:57:54.784Z,1010.56
2019-02-08T06:59:04.219Z,1010.6
2019-02-08T07:00:14.146Z,1010.6
2019-02-08T07:01:23.571Z,1010.63
2019-02-08T07:02:33.005Z,1010.56
2019-02-08T07:03:42.957Z,1010.53
2019-02-08T07:04:52.630Z,1010.6
2019-02-08T07:06:02.070Z,1010.64
2019-02-08T07:07:12.011Z,1010.55
2019-02-08T07:08:21.434Z,1010.57
2019-02-08T07:09:31.118Z,1010.63
2019-02-08T07:10:41.475Z,1010.58
2019-02-08T07:11:51.231Z,1010.57
2019-02-08T07:13:00.657Z,1010.52
2019-02-08T07:14:10.582Z,1010.56
2019-02-08T07:15:20.258Z,1010.62
2019-02-08T07:16:29.939Z,1010.58
2019-02-08T07:17:40.166Z,1010.59
2019-02-08T07:18:49.856Z,1010.59
2019-02-08T07:19:59.798Z,1010.69
2019-02-08T07:21:09.474Z,1010.66
2019-02-08T07:22:18.642Z,1010.69
2019-02-08T07:23:28.562Z,1010.66
2019-02-08T07:24:37.989Z,1010.63
2019-02-08T07:25:47.702Z,1010.67
2019-02-08T07:26:57.134Z,1010.7
2019-02-08T07:28:06.813Z,1010.65
2019-02-08T07:29:16.483Z,1010.65
2019-02-08T07:30:26.161Z,1010.66
2019-02-08T07:31:36.076Z,1010.65
2019-02-08T07:32:45.520Z,1010.66
2019-02-08T07:33:56.537Z,1010.62
2019-02-08T07:35:06.468Z,1010.67
2019-02-08T07:36:16.403Z,1010.68
2019-02-08T07:37:26.076Z,1010.71
2019-02-08T07:38:35.570Z,1010.74
2019-02-08T07:39:45.243Z,1010.68
2019-02-08T07:40:54.662Z,1010.74
2019-02-08T07:42:04.089Z,1010.74
2019-02-08T07:43:14.022Z,1010.75
2019-02-08T07:44:23.703Z,1010.76
2019-02-08T07:45:32.905Z,1010.76
2019-02-08T07:46:42.581Z,1010.73
2019-02-08T07:47:52.513Z,1010.72
2019-02-08T07:49:01.948Z,1010.72
2019-02-08T07:50:11.884Z,1010.7
2019-02-08T07:51:21.801Z,1010.68
2019-02-08T07:52:31.487Z,1010.72
2019-02-08T07:53:41.417Z,1010.71
2019-02-08T07:54:51.091Z,1010.69
2019-02-08T07:56:00.688Z,1010.67
2019-02-08T07:57:10.610Z,1010.7
2019-02-08T07:58:20.047Z,1010.71
2019-02-08T07:59:29.478Z,1010.72
2019-02-08T08:00:39.153Z,1010.67
2019-02-08T08:01:48.333Z,1010.76
2019-02-08T08:02:57.793Z,1010.75
2019-02-08T08:04:07.219Z,1010.72
2019-02-08T08:05:16.642Z,1010.76
2019-02-08T08:06:26.313Z,1010.75
2019-02-08T08:07:36.026Z,1010.7
2019-02-08T08:08:45.970Z,1010.73
2019-02-08T08:09:55.419Z,1010.73
2019-02-08T08:11:05.096Z,1010.69
2019-02-08T08:12:14.785Z,1010.71
2019-02-08T08:13:24.729Z,1010.73
2019-02-08T08:14:34.333Z,1010.66
2019-02-08T08:15:44.009Z,1010.71
2019-02-08T08:16:53.688Z,1010.72
2019-02-08T08:18:03.382Z,1010.67
2019-02-08T08:19:13.356Z,1010.68
2019-02-08T08:20:23.645Z,1010.71
2019-02-08T08:21:33.570Z,1010.72
2019-02-08T08:22:43.241Z,1010.68
2019-02-08T08:23:52.932Z,1010.6
2019-02-08T08:25:02.871Z,1010.66
2019-02-08T08:26:12.550Z,1010.69
2019-02-08T08:27:22.256Z,1010.68
2019-02-08T08:28:31.690Z,1010.7
2019-02-08T08:29:41.615Z,1010.71
2019-02-08T08:30:51.309Z,1010.59
2019-02-08T08:32:01.271Z,1010.68
2019-02-08T08:33:11.221Z,1010.67
2019-02-08T08:34:21.159Z,1010.64
2019-02-08T08:35:30.857Z,1010.7
2019-02-08T08:36:40.782Z,1010.65
2019-02-08T08:37:49.956Z,1010.69
2019-02-08T08:38:59.890Z,1010.66
2019-02-08T08:40:09.596Z,1010.7
2019-02-08T08:41:19.536Z,1010.67
2019-02-08T08:42:29.206Z,1010.69
2019-02-08T08:43:39.131Z,1010.66
2019-02-08T08:44:48.821Z,1010.66
2019-02-08T08:45:58.245Z,1010.61
2019-02-08T08:47:07.938Z,1010.64
2019-02-08T08:48:17.862Z,1010.6
2019-02-08T08:49:27.297Z,1010.59
2019-02-08T08:50:37.213Z,1010.6
2019-02-08T08:51:46.904Z,1010.51
2019-02-08T08:52:56.837Z,1010.5
2019-02-08T08:54:06.515Z,1010.53
2019-02-08T08:55:15.934Z,1010.52
2019-02-08T08:56:25.866Z,1010.44
2019-02-08T08:57:35.549Z,1010.52
2019-02-08T08:58:45.226Z,1010.51
2019-02-08T08:59:55.149Z,1010.52
2019-02-08T09:01:04.326Z,1010.48
2019-02-08T09:02:14.253Z,1010.46
2019-02-08T09:03:24.199Z,1010.46
2019-02-08T09:04:33.878Z,1010.45
2019-02-08T09:05:44.554Z,1010.48
2019-02-08T09:06:54.506Z,1010.45
2019-02-08T09:08:04.185Z,1010.44
2019-02-08T09:09:13.610Z,1010.39
2019-02-08T09:10:23.046Z,1010.39
2019-02-08T09:11:32.492Z,1010.37
2019-02-08T09:12:42.432Z,1010.36
2019-02-08T09:13:51.865Z,1010.33
2019-02-08T09:15:01.577Z,1010.33
2019-02-08T09:16:11.508Z,1010.33
2019-02-08T09:17:20.939Z,1010.39
2019-02-08T09:18:30.878Z,1010.32
2019-02-08T09:19:40.813Z,1010.34
2019-02-08T09:20:50.753Z,1010.4
2019-02-08T09:22:00.685Z,1010.33
2019-02-08T09:23:10.370Z,1010.33
2019-02-08T09:24:19.802Z,1010.34
2019-02-08T09:25:29.238Z,1010.29
2019-02-08T09:26:38.910Z,1010.34
2019-02-08T09:27:48.634Z,1010.32
2019-02-08T09:28:58.055Z,1010.31
2019-02-08T09:30:07.857Z,1010.37
2019-02-08T09:31:17.281Z,1010.3
2019-02-08T09:32:26.956Z,1010.33
2019-02-08T09:33:36.382Z,1010.29
2019-02-08T09:34:46.325Z,1010.29
2019-02-08T09:35:56.025Z,1010.31
2019-02-08T09:37:05.709Z,1010.26
2019-02-08T09:38:15.639Z,1010.32
2019-02-08T09:39:24.821Z,1010.29
2019-02-08T09:40:34.011Z,1010.27
2019-02-08T09:41:43.438Z,1010.33
2019-02-08T09:42:53.379Z,1010.34
2019-02-08T09:44:03.077Z,1010.34
2019-02-08T09:45:12.265Z,1010.38
2019-02-08T09:46:22.175Z,1010.43
2019-02-08T09:47:32.117Z,1010.41
2019-02-08T09:48:41.540Z,1010.36
2019-02-08T09:49:51.248Z,1010.39
2019-02-08T09:51:00.923Z,1010.4
2019-02-08T09:52:10.848Z,1010.36
2019-02-08T09:53:20.274Z,1010.33
2019-02-08T09:54:29.718Z,1010.27
2019-02-08T09:55:39.410Z,1010.31
2019-02-08T09:56:49.356Z,1010.28
2019-02-08T09:57:59.039Z,1010.31
2019-02-08T09:59:08.982Z,1010.27
2019-02-08T10:00:18.406Z,1010.26
2019-02-08T10:01:27.827Z,1010.29
2019-02-08T10:02:37.501Z,1010.26
2019-02-08T10:03:47.427Z,1010.19
2019-02-08T10:04:57.108Z,1010.17
2019-02-08T10:06:07.053Z,1010.13
2019-02-08T10:07:16.753Z,1010.18
2019-02-08T10:08:26.451Z,1010.19
2019-02-08T10:09:36.132Z,1010.19
2019-02-08T10:10:45.812Z,1010.22
2019-02-08T10:11:55.257Z,1010.11
2019-02-08T10:13:05.181Z,1010.2
2019-02-08T10:14:14.860Z,1010.14
2019-02-08T10:15:24.784Z,1010.1
2019-02-08T10:16:34.224Z,1010.18
2019-02-08T10:17:44.152Z,1010.21
2019-02-08T10:18:54.092Z,1010.15
2019-02-08T10:20:03.563Z,1010.14
2019-02-08T10:21:13.496Z,1010.21
2019-02-08T10:22:23.424Z,1010.19
2019-02-08T10:23:32.854Z,1010.26
2019-02-08T10:24:42.535Z,1010.29
2019-02-08T10:25:51.767Z,1010.23
2019-02-08T10:27:08.240Z,1010.12
2019-02-08T10:28:17.929Z,1010.21
2019-02-08T10:29:28.064Z,1010.23
2019-02-08T10:30:37.990Z,1010.3
2019-02-08T10:31:47.418Z,1010.14
2019-02-08T10:32:57.101Z,1010.17
2019-02-08T10:34:06.792Z,1010.19
2019-02-08T10:35:15.965Z,1010.07
2019-02-08T10:36:25.639Z,1010.2
2019-02-08T10:37:35.579Z,1010.18
2019-02-08T10:38:45.302Z,1010.13
2019-02-08T10:39:55.246Z,1010.14
2019-02-08T10:41:05.451Z,1010.05
2019-02-08T10:42:15.386Z,1010.11
2019-02-08T10:43:25.316Z,1010.1
2019-02-08T10:44:35.249Z,1010.06
2019-02-08T10:45:44.695Z,1010.12
2019-02-08T10:46:54.132Z,1010.07
2019-02-08T10:48:04.061Z,1010.1
2019-02-08T10:49:13.489Z,1010.12
2019-02-08T10:50:22.973Z,1010.05
2019-02-08T10:51:32.403Z,1010
2019-02-08T10:52:42.097Z,1010.08
2019-02-08T10:53:53.088Z,1010.02
2019-02-08T10:55:02.810Z,1010.03
2019-02-08T10:56:14.960Z,1010.02
2019-02-08T10:57:25.243Z,1010.01
2019-02-08T10:58:34.677Z,1010.02
2019-02-08T10:59:44.614Z,1009.99
2019-02-08T11:00:54.544Z,1010.01
2019-02-08T11:02:04.483Z,1010.03
2019-02-08T11:03:13.665Z,1010.02
2019-02-08T11:04:23.336Z,1009.91
2019-02-08T11:05:33.272Z,1009.91
2019-02-08T11:06:42.705Z,1009.91
2019-02-08T11:07:52.389Z,1009.91
2019-02-08T11:09:02.331Z,1009.96
2019-02-08T11:10:12.012Z,1009.91
2019-02-08T11:11:23.007Z,1009.95
2019-02-08T11:12:33.010Z,1009.88
2019-02-08T11:13:42.706Z,1009.93
2019-02-08T11:14:52.395Z,1009.88
2019-02-08T11:16:01.835Z,1009.91
2019-02-08T11:17:11.774Z,1009.94
2019-02-08T11:18:21.446Z,1009.87
2019-02-08T11:19:31.138Z,1009.8
2019-02-08T11:20:40.610Z,1009.76
2019-02-08T11:21:50.067Z,1009.72
2019-02-08T11:22:59.520Z,1009.71
2019-02-08T11:24:09.209Z,1009.73
2019-02-08T11:25:18.655Z,1009.69
2019-02-08T11:26:28.091Z,1009.63
2019-02-08T11:27:37.782Z,1009.53
2019-02-08T11:28:47.728Z,1009.48
2019-02-08T11:29:57.404Z,1009.55
2019-02-08T11:31:07.334Z,1009.5
2019-02-08T11:32:17.005Z,1009.47
2019-02-08T11:33:42.732Z,1009.4
2019-02-08T11:34:52.659Z,1009.37
2019-02-08T11:36:02.357Z,1009.46
2019-02-08T11:37:12.285Z,1009.56
2019-02-08T11:38:21.956Z,1009.49
2019-02-08T11:39:31.394Z,1009.41
2019-02-08T11:40:40.817Z,1009.43
2019-02-08T11:41:50.747Z,1009.44
2019-02-08T11:43:00.172Z,1009.36
2019-02-08T11:44:09.855Z,1009.36
2019-02-08T11:45:19.038Z,1009.28
2019-02-08T11:46:28.720Z,1009.36
2019-02-08T11:47:38.148Z,1009.29
2019-02-08T11:48:47.842Z,1009.29
2019-02-08T11:49:57.531Z,1009.33
2019-02-08T11:51:06.965Z,1009.28
2019-02-08T11:52:17.682Z,1009.37
2019-02-08T11:53:27.355Z,1009.37
2019-02-08T11:54:36.558Z,1009.27
2019-02-08T11:55:46.245Z,1009.28
2019-02-08T11:56:55.459Z,1009.26
2019-02-08T11:58:05.167Z,1009.22
2019-02-08T11:59:14.362Z,1009.32
2019-02-08T12:00:24.049Z,1009.26
2019-02-08T12:01:33.748Z,1009.3
2019-02-08T12:02:43.422Z,1009.24
2019-02-08T12:03:52.606Z,1009.23
2019-02-08T12:05:01.537Z,1009.23
2019-02-08T12:06:11.457Z,1009.17
2019-02-08T12:07:21.392Z,1009.25
2019-02-08T12:08:31.071Z,1009.2
2019-02-08T12:09:40.777Z,1009.12
2019-02-08T12:10:50.476Z,1009.15
2019-02-08T12:12:00.416Z,1009.1
2019-02-08T12:13:09.855Z,1009.12
2019-02-08T12:14:19.582Z,1009.12
2019-02-08T12:15:29.993Z,1009.1
2019-02-08T12:16:39.170Z,1009.13
2019-02-08T12:17:49.095Z,1009.15
2019-02-08T12:18:58.774Z,1009.12
2019-02-08T12:20:07.978Z,1009.08
2019-02-08T12:21:17.657Z,1008.99
2019-02-08T12:22:27.583Z,1009.01
2019-02-08T12:23:37.299Z,1008.97
2019-02-08T12:24:47.005Z,1008.96
2019-02-08T12:25:57.833Z,1009.01
2019-02-08T12:27:07.523Z,1008.92
2019-02-08T12:28:17.205Z,1008.91
2019-02-08T12:32:12.086Z,1008.93
2019-02-08T12:33:21.767Z,1008.85
2019-02-08T12:34:31.445Z,1008.84
2019-02-08T12:35:41.202Z,1008.81
2019-02-08T12:36:50.876Z,1008.76
2019-02-08T12:38:00.814Z,1008.78
2019-02-08T12:39:10.495Z,1008.76
2019-02-08T12:40:20.430Z,1008.61
2019-02-08T12:41:30.366Z,1008.67
2019-02-08T12:42:40.050Z,1008.63
2019-02-08T12:43:49.755Z,1008.63
2019-02-08T12:44:59.439Z,1008.56
2019-02-08T12:46:09.386Z,1008.36
2019-02-08T12:47:18.829Z,1008.5
2019-02-08T12:48:28.258Z,1008.51
2019-02-08T12:49:39.388Z,1008.43
2019-02-08T12:50:48.816Z,1008.46
2019-02-08T12:51:58.241Z,1008.45
2019-02-08T12:53:08.184Z,1008.42
2019-02-08T12:54:18.191Z,1008.44
2019-02-08T12:55:28.852Z,1008.53
2019-02-08T12:56:45.313Z,1008.4
2019-02-08T12:57:55.066Z,1008.45
2019-02-08T12:59:04.516Z,1008.34
2019-02-08T13:00:14.599Z,1008.38
2019-02-08T13:01:24.137Z,1008.29
2019-02-08T13:02:40.527Z,1008.27
2019-02-08T13:03:50.461Z,1008.27
2019-02-08T13:05:00.395Z,1008.31
2019-02-08T13:06:10.073Z,1008.2
2019-02-08T13:07:19.506Z,1008.2
2019-02-08T13:08:29.202Z,1008.26
2019-02-08T13:09:38.898Z,1008.17
2019-02-08T13:10:48.593Z,1008.07
2019-02-08T13:11:58.029Z,1008.25
2019-02-08T13:13:07.453Z,1008.14
2019-02-08T13:14:16.884Z,1008.05
2019-02-08T13:15:26.818Z,1008.09
2019-02-08T13:16:36.498Z,1008.09
2019-02-08T13:17:46.180Z,1008.1
2019-02-08T13:18:55.858Z,1008.12
2019-02-08T13:20:05.308Z,1008.09
2019-02-08T13:21:14.489Z,1008.07
2019-02-08T13:22:23.929Z,1008.07
2019-02-08T13:23:33.107Z,1008.02
2019-02-08T13:24:43.040Z,1007.98
2019-02-08T13:25:52.989Z,1007.93
2019-02-08T13:27:02.932Z,1007.96
2019-02-08T13:28:12.863Z,1007.92
2019-02-08T13:29:22.635Z,1007.93
2019-02-08T13:30:32.354Z,1007.93
2019-02-08T13:31:42.289Z,1007.87
2019-02-08T13:32:52.016Z,1007.83
2019-02-08T13:34:01.701Z,1007.86
2019-02-08T13:35:11.383Z,1007.76
2019-02-08T13:36:20.823Z,1007.82
2019-02-08T13:37:30.747Z,1007.8
2019-02-08T13:38:40.689Z,1007.81
2019-02-08T13:39:49.887Z,1007.79
2019-02-08T13:40:59.572Z,1007.7
2019-02-08T13:42:09.259Z,1007.77
2019-02-08T13:43:19.204Z,1007.73
2019-02-08T13:44:28.140Z,1007.72
2019-02-08T13:45:37.568Z,1007.77
2019-02-08T13:46:47.243Z,1007.69
2019-02-08T13:47:56.934Z,1007.7
2019-02-08T13:49:06.611Z,1007.66
2019-02-08T13:50:16.305Z,1007.7
2019-02-08T13:51:25.492Z,1007.7
2019-02-08T13:52:35.199Z,1007.66
2019-02-08T13:53:45.115Z,1007.71
2019-02-08T13:54:54.803Z,1007.63
2019-02-08T13:56:04.511Z,1007.69
2019-02-08T13:57:14.189Z,1007.72
2019-02-08T13:58:23.867Z,1007.71
2019-02-08T13:59:33.573Z,1007.71
2019-02-08T14:00:43.016Z,1007.58
2019-02-08T14:01:52.938Z,1007.64
2019-02-08T14:03:02.883Z,1007.55
2019-02-08T14:04:11.855Z,1007.58
2019-02-08T14:05:21.292Z,1007.55
2019-02-08T14:06:31.008Z,1007.56
2019-02-08T14:07:40.950Z,1007.54
2019-02-08T14:08:50.678Z,1007.56
2019-02-08T14:10:00.356Z,1007.54
2019-02-08T14:11:10.044Z,1007.56
2019-02-08T14:12:19.759Z,1007.52